sensor_id;sensor_type;location;lat;lon;timestamp;pressure;altitude;pressure_sealevel;temperature
63158;BMP280;49381;49.338;8.794;2022-07-23T00:01:33;100105.25;;;24.43
63158;BMP280;49381;49.338;8.794;2022-07-23T00:03:34;100105.38;;;24.40
63158;BMP280;49381;49.338;8.794;2022-07-23T00:05:34;100099.59;;;24.35
63158;BMP280;49381;49.338;8.794;2022-07-23T00:07:35;100095.34;;;24.34
63158;BMP280;49381;49.338;8.794;2022-07-23T00:09:35;100094.69;;;24.31
63158;BMP280;49381;49.338;8.794;2022-07-23T00:11:37;100094.34;;;24.21
63158;BMP280;49381;49.338;8.794;2022-07-23T00:13:37;100094.16;;;24.24
63158;BMP280;49381;49.338;8.794;2022-07-23T00:15:38;100090.97;;;24.20
63158;BMP280;49381;49.338;8.794;2022-07-23T00:17:38;100092.72;;;24.19
63158;BMP280;49381;49.338;8.794;2022-07-23T00:19:38;100095.69;;;24.28
63158;BMP280;49381;49.338;8.794;2022-07-23T00:21:39;100099.09;;;24.29
63158;BMP280;49381;49.338;8.794;2022-07-23T00:23:39;100096.00;;;24.22
63158;BMP280;49381;49.338;8.794;2022-07-23T00:25:39;100103.31;;;24.15
63158;BMP280;49381;49.338;8.794;2022-07-23T00:27:41;100107.50;;;24.17
63158;BMP280;49381;49.338;8.794;2022-07-23T00:29:41;100110.34;;;24.13
63158;BMP280;49381;49.338;8.794;2022-07-23T00:31:42;100104.38;;;24.11
63158;BMP280;49381;49.338;8.794;2022-07-23T00:33:42;100101.09;;;24.07
63158;BMP280;49381;49.338;8.794;2022-07-23T00:35:42;100099.56;;;24.03
63158;BMP280;49381;49.338;8.794;2022-07-23T00:37:43;100099.81;;;24.16
63158;BMP280;49381;49.338;8.794;2022-07-23T00:39:43;100105.28;;;24.10
63158;BMP280;49381;49.338;8.794;2022-07-23T00:41:43;100109.00;;;24.04
63158;BMP280;49381;49.338;8.794;2022-07-23T00:43:45;100107.56;;;23.99
63158;BMP280;49381;49.338;8.794;2022-07-23T00:45:45;100102.91;;;24.05
63158;BMP280;49381;49.338;8.794;2022-07-23T00:47:46;100101.75;;;24.12
63158;BMP280;49381;49.338;8.794;2022-07-23T00:49:46;100102.38;;;24.16
63158;BMP280;49381;49.338;8.794;2022-07-23T00:51:47;100092.56;;;24.05
63158;BMP280;49381;49.338;8.794;2022-07-23T00:53:48;100107.75;;;23.96
63158;BMP280;49381;49.338;8.794;2022-07-23T00:55:48;100096.94;;;23.88
63158;BMP280;49381;49.338;8.794;2022-07-23T00:57:50;100096.47;;;23.80
63158;BMP280;49381;49.338;8.794;2022-07-23T00:59:52;100093.50;;;23.71
63158;BMP280;49381;49.338;8.794;2022-07-23T01:01:52;100101.66;;;23.64
63158;BMP280;49381;49.338;8.794;2022-07-23T01:03:53;100103.28;;;23.66
63158;BMP280;49381;49.338;8.794;2022-07-23T01:05:53;100108.97;;;23.72
63158;BMP280;49381;49.338;8.794;2022-07-23T01:07:54;100095.25;;;23.70
63158;BMP280;49381;49.338;8.794;2022-07-23T01:09:55;100094.19;;;23.58
63158;BMP280;49381;49.338;8.794;2022-07-23T01:11:56;100093.91;;;23.47
63158;BMP280;49381;49.338;8.794;2022-07-23T01:13:57;100097.97;;;23.51
63158;BMP280;49381;49.338;8.794;2022-07-23T01:15:58;100093.28;;;23.59
63158;BMP280;49381;49.338;8.794;2022-07-23T01:17:59;100099.38;;;23.58
63158;BMP280;49381;49.338;8.794;2022-07-23T01:19:59;100099.50;;;23.55
63158;BMP280;49381;49.338;8.794;2022-07-23T01:22:02;100098.63;;;23.38
63158;BMP280;49381;49.338;8.794;2022-07-23T01:24:05;100097.72;;;23.39
63158;BMP280;49381;49.338;8.794;2022-07-23T01:26:05;100093.06;;;23.28
63158;BMP280;49381;49.338;8.794;2022-07-23T01:28:06;100091.44;;;23.26
63158;BMP280;49381;49.338;8.794;2022-07-23T01:30:07;100088.81;;;23.27
63158;BMP280;49381;49.338;8.794;2022-07-23T01:32:08;100087.28;;;23.23
63158;BMP280;49381;49.338;8.794;2022-07-23T01:34:09;100088.94;;;23.08
63158;BMP280;49381;49.338;8.794;2022-07-23T01:36:09;100094.03;;;23.26
63158;BMP280;49381;49.338;8.794;2022-07-23T01:38:09;100088.66;;;23.30
63158;BMP280;49381;49.338;8.794;2022-07-23T01:40:11;100080.75;;;23.33
63158;BMP280;49381;49.338;8.794;2022-07-23T01:42:12;100081.28;;;23.40
63158;BMP280;49381;49.338;8.794;2022-07-23T01:44:12;100072.00;;;23.19
63158;BMP280;49381;49.338;8.794;2022-07-23T01:46:12;100068.19;;;23.26
63158;BMP280;49381;49.338;8.794;2022-07-23T01:48:13;100069.56;;;23.33
63158;BMP280;49381;49.338;8.794;2022-07-23T01:50:13;100064.31;;;23.34
63158;BMP280;49381;49.338;8.794;2022-07-23T01:52:14;100066.78;;;23.37
63158;BMP280;49381;49.338;8.794;2022-07-23T01:54:14;100072.47;;;23.27
63158;BMP280;49381;49.338;8.794;2022-07-23T01:56:16;100075.09;;;23.25
63158;BMP280;49381;49.338;8.794;2022-07-23T01:58:16;100081.91;;;23.28
63158;BMP280;49381;49.338;8.794;2022-07-23T02:00:16;100083.09;;;23.21
63158;BMP280;49381;49.338;8.794;2022-07-23T02:02:16;100087.72;;;23.15
63158;BMP280;49381;49.338;8.794;2022-07-23T02:04:17;100086.41;;;23.06
63158;BMP280;49381;49.338;8.794;2022-07-23T02:06:17;100086.63;;;23.02
63158;BMP280;49381;49.338;8.794;2022-07-23T02:08:18;100085.84;;;23.00
63158;BMP280;49381;49.338;8.794;2022-07-23T02:10:18;100084.69;;;22.89
63158;BMP280;49381;49.338;8.794;2022-07-23T02:12:20;100074.97;;;22.93
63158;BMP280;49381;49.338;8.794;2022-07-23T02:14:20;100082.31;;;22.84
63158;BMP280;49381;49.338;8.794;2022-07-23T02:16:20;100086.66;;;22.84
63158;BMP280;49381;49.338;8.794;2022-07-23T02:18:21;100072.19;;;22.80
63158;BMP280;49381;49.338;8.794;2022-07-23T02:20:21;100075.91;;;22.74
63158;BMP280;49381;49.338;8.794;2022-07-23T02:22:22;100089.97;;;22.67
63158;BMP280;49381;49.338;8.794;2022-07-23T02:24:22;100084.41;;;22.76
63158;BMP280;49381;49.338;8.794;2022-07-23T02:26:22;100086.50;;;22.68
63158;BMP280;49381;49.338;8.794;2022-07-23T02:28:25;100083.00;;;22.69
63158;BMP280;49381;49.338;8.794;2022-07-23T02:30:25;100084.66;;;22.70
63158;BMP280;49381;49.338;8.794;2022-07-23T02:32:26;100100.31;;;22.67
63158;BMP280;49381;49.338;8.794;2022-07-23T02:34:26;100111.31;;;22.72
63158;BMP280;49381;49.338;8.794;2022-07-23T02:36:27;100112.16;;;22.71
63158;BMP280;49381;49.338;8.794;2022-07-23T02:38:27;100114.13;;;22.67
63158;BMP280;49381;49.338;8.794;2022-07-23T02:40:27;100116.06;;;22.62
63158;BMP280;49381;49.338;8.794;2022-07-23T02:42:28;100128.06;;;22.44
63158;BMP280;49381;49.338;8.794;2022-07-23T02:44:29;100135.34;;;22.55
63158;BMP280;49381;49.338;8.794;2022-07-23T02:46:30;100128.63;;;22.51
63158;BMP280;49381;49.338;8.794;2022-07-23T02:48:30;100126.31;;;22.45
63158;BMP280;49381;49.338;8.794;2022-07-23T02:50:30;100124.72;;;22.42
63158;BMP280;49381;49.338;8.794;2022-07-23T02:52:31;100130.31;;;22.52
63158;BMP280;49381;49.338;8.794;2022-07-23T02:54:31;100133.94;;;22.48
63158;BMP280;49381;49.338;8.794;2022-07-23T02:56:31;100133.50;;;22.39
63158;BMP280;49381;49.338;8.794;2022-07-23T02:58:32;100127.50;;;22.38
63158;BMP280;49381;49.338;8.794;2022-07-23T03:00:33;100139.63;;;22.36
63158;BMP280;49381;49.338;8.794;2022-07-23T03:02:34;100134.63;;;22.33
63158;BMP280;49381;49.338;8.794;2022-07-23T03:04:34;100138.59;;;22.40
63158;BMP280;49381;49.338;8.794;2022-07-23T03:06:34;100137.69;;;22.41
63158;BMP280;49381;49.338;8.794;2022-07-23T03:08:35;100148.81;;;22.43
63158;BMP280;49381;49.338;8.794;2022-07-23T03:10:35;100151.50;;;22.40
63158;BMP280;49381;49.338;8.794;2022-07-23T03:12:35;100154.09;;;22.40
63158;BMP280;49381;49.338;8.794;2022-07-23T03:14:36;100152.63;;;22.35
63158;BMP280;49381;49.338;8.794;2022-07-23T03:16:37;100155.28;;;22.33
63158;BMP280;49381;49.338;8.794;2022-07-23T03:18:38;100161.19;;;22.35
63158;BMP280;49381;49.338;8.794;2022-07-23T03:20:38;100160.56;;;22.30
63158;BMP280;49381;49.338;8.794;2022-07-23T03:22:38;100163.94;;;22.13
63158;BMP280;49381;49.338;8.794;2022-07-23T03:24:38;100169.75;;;22.17
63158;BMP280;49381;49.338;8.794;2022-07-23T03:26:39;100174.75;;;22.20
63158;BMP280;49381;49.338;8.794;2022-07-23T03:28:39;100171.25;;;22.21
63158;BMP280;49381;49.338;8.794;2022-07-23T03:30:39;100173.22;;;22.17
63158;BMP280;49381;49.338;8.794;2022-07-23T03:32:41;100168.69;;;22.21
63158;BMP280;49381;49.338;8.794;2022-07-23T03:34:41;100164.97;;;22.28
63158;BMP280;49381;49.338;8.794;2022-07-23T03:36:42;100167.16;;;22.37
63158;BMP280;49381;49.338;8.794;2022-07-23T03:38:42;100154.91;;;22.41
63158;BMP280;49381;49.338;8.794;2022-07-23T03:40:43;100161.06;;;22.38
63158;BMP280;49381;49.338;8.794;2022-07-23T03:42:43;100154.44;;;22.33
63158;BMP280;49381;49.338;8.794;2022-07-23T03:44:43;100157.91;;;22.32
63158;BMP280;49381;49.338;8.794;2022-07-23T03:46:43;100158.34;;;22.41
63158;BMP280;49381;49.338;8.794;2022-07-23T03:48:45;100167.72;;;22.43
63158;BMP280;49381;49.338;8.794;2022-07-23T03:50:45;100166.47;;;22.52
63158;BMP280;49381;49.338;8.794;2022-07-23T03:52:46;100167.56;;;22.46
63158;BMP280;49381;49.338;8.794;2022-07-23T03:54:46;100170.84;;;22.50
63158;BMP280;49381;49.338;8.794;2022-07-23T03:56:46;100168.34;;;22.48
63158;BMP280;49381;49.338;8.794;2022-07-23T03:58:47;100162.34;;;22.48
63158;BMP280;49381;49.338;8.794;2022-07-23T04:00:47;100158.84;;;22.49
63158;BMP280;49381;49.338;8.794;2022-07-23T04:02:48;100164.56;;;22.37
63158;BMP280;49381;49.338;8.794;2022-07-23T04:04:49;100163.03;;;22.33
63158;BMP280;49381;49.338;8.794;2022-07-23T04:06:49;100165.72;;;22.30
63158;BMP280;49381;49.338;8.794;2022-07-23T04:08:50;100171.91;;;22.26
63158;BMP280;49381;49.338;8.794;2022-07-23T04:10:50;100170.97;;;22.29
63158;BMP280;49381;49.338;8.794;2022-07-23T04:12:51;100177.78;;;22.30
63158;BMP280;49381;49.338;8.794;2022-07-23T04:14:51;100196.84;;;22.27
63158;BMP280;49381;49.338;8.794;2022-07-23T04:16:51;100211.63;;;22.24
63158;BMP280;49381;49.338;8.794;2022-07-23T04:18:52;100234.19;;;22.19
63158;BMP280;49381;49.338;8.794;2022-07-23T04:20:53;100250.44;;;22.21
63158;BMP280;49381;49.338;8.794;2022-07-23T04:22:54;100255.56;;;22.22
63158;BMP280;49381;49.338;8.794;2022-07-23T04:24:54;100253.88;;;22.21
63158;BMP280;49381;49.338;8.794;2022-07-23T04:26:54;100261.75;;;22.18
63158;BMP280;49381;49.338;8.794;2022-07-23T04:28:55;100254.66;;;22.23
63158;BMP280;49381;49.338;8.794;2022-07-23T04:30:56;100252.09;;;22.23
63158;BMP280;49381;49.338;8.794;2022-07-23T04:32:56;100246.66;;;22.29
63158;BMP280;49381;49.338;8.794;2022-07-23T04:34:56;100256.22;;;22.27
63158;BMP280;49381;49.338;8.794;2022-07-23T04:36:58;100253.22;;;22.36
63158;BMP280;49381;49.338;8.794;2022-07-23T04:38:58;100241.13;;;22.38
63158;BMP280;49381;49.338;8.794;2022-07-23T04:40:58;100237.06;;;22.33
63158;BMP280;49381;49.338;8.794;2022-07-23T04:42:59;100236.91;;;22.36
63158;BMP280;49381;49.338;8.794;2022-07-23T04:44:59;100231.16;;;22.29
63158;BMP280;49381;49.338;8.794;2022-07-23T04:46:59;100228.56;;;22.10
63158;BMP280;49381;49.338;8.794;2022-07-23T04:49:00;100233.50;;;21.94
63158;BMP280;49381;49.338;8.794;2022-07-23T04:51:00;100233.03;;;21.85
63158;BMP280;49381;49.338;8.794;2022-07-23T04:53:02;100226.00;;;21.89
63158;BMP280;49381;49.338;8.794;2022-07-23T04:55:03;100234.31;;;21.95
63158;BMP280;49381;49.338;8.794;2022-07-23T04:57:03;100240.25;;;21.97
63158;BMP280;49381;49.338;8.794;2022-07-23T04:59:04;100253.00;;;21.80
63158;BMP280;49381;49.338;8.794;2022-07-23T05:01:04;100268.97;;;21.90
63158;BMP280;49381;49.338;8.794;2022-07-23T05:03:04;100275.72;;;21.92
63158;BMP280;49381;49.338;8.794;2022-07-23T05:05:05;100274.19;;;21.88
63158;BMP280;49381;49.338;8.794;2022-07-23T05:07:06;100278.06;;;21.77
63158;BMP280;49381;49.338;8.794;2022-07-23T05:09:07;100300.50;;;21.96
63158;BMP280;49381;49.338;8.794;2022-07-23T05:11:08;100298.09;;;21.91
63158;BMP280;49381;49.338;8.794;2022-07-23T05:13:08;100307.19;;;21.80
63158;BMP280;49381;49.338;8.794;2022-07-23T05:15:08;100314.97;;;22.00
63158;BMP280;49381;49.338;8.794;2022-07-23T05:17:09;100311.53;;;22.01
63158;BMP280;49381;49.338;8.794;2022-07-23T05:19:09;100319.66;;;21.91
63158;BMP280;49381;49.338;8.794;2022-07-23T05:21:09;100311.31;;;21.84
63158;BMP280;49381;49.338;8.794;2022-07-23T05:23:10;100304.25;;;21.89
63158;BMP280;49381;49.338;8.794;2022-07-23T05:25:11;100301.53;;;21.92
63158;BMP280;49381;49.338;8.794;2022-07-23T05:27:12;100315.47;;;21.88
63158;BMP280;49381;49.338;8.794;2022-07-23T05:29:12;100312.09;;;21.86
63158;BMP280;49381;49.338;8.794;2022-07-23T05:31:12;100321.34;;;21.91
63158;BMP280;49381;49.338;8.794;2022-07-23T05:33:13;100330.03;;;21.89
63158;BMP280;49381;49.338;8.794;2022-07-23T05:35:13;100322.06;;;21.95
63158;BMP280;49381;49.338;8.794;2022-07-23T05:37:13;100323.88;;;21.93
63158;BMP280;49381;49.338;8.794;2022-07-23T05:39:14;100320.31;;;21.95
63158;BMP280;49381;49.338;8.794;2022-07-23T05:41:15;100315.56;;;21.85
63158;BMP280;49381;49.338;8.794;2022-07-23T05:43:16;100308.63;;;21.87
63158;BMP280;49381;49.338;8.794;2022-07-23T05:45:16;100309.75;;;21.80
63158;BMP280;49381;49.338;8.794;2022-07-23T05:47:16;100298.19;;;21.90
63158;BMP280;49381;49.338;8.794;2022-07-23T05:49:17;100286.19;;;21.89
63158;BMP280;49381;49.338;8.794;2022-07-23T05:51:19;100286.94;;;21.91
63158;BMP280;49381;49.338;8.794;2022-07-23T05:53:20;100281.78;;;21.91
63158;BMP280;49381;49.338;8.794;2022-07-23T05:55:20;100290.84;;;22.02
63158;BMP280;49381;49.338;8.794;2022-07-23T05:57:22;100285.34;;;22.10
63158;BMP280;49381;49.338;8.794;2022-07-23T05:59:22;100278.28;;;22.15
63158;BMP280;49381;49.338;8.794;2022-07-23T06:01:22;100278.53;;;22.09
63158;BMP280;49381;49.338;8.794;2022-07-23T06:03:23;100284.78;;;22.03
63158;BMP280;49381;49.338;8.794;2022-07-23T06:05:23;100298.38;;;22.07
63158;BMP280;49381;49.338;8.794;2022-07-23T06:07:24;100311.56;;;21.99
63158;BMP280;49381;49.338;8.794;2022-07-23T06:09:24;100312.41;;;22.00
63158;BMP280;49381;49.338;8.794;2022-07-23T06:11:24;100298.59;;;22.02
63158;BMP280;49381;49.338;8.794;2022-07-23T06:13:26;100292.56;;;22.02
63158;BMP280;49381;49.338;8.794;2022-07-23T06:15:26;100287.41;;;22.02
63158;BMP280;49381;49.338;8.794;2022-07-23T06:17:27;100284.34;;;22.14
63158;BMP280;49381;49.338;8.794;2022-07-23T06:19:27;100286.53;;;22.03
63158;BMP280;49381;49.338;8.794;2022-07-23T06:21:27;100291.44;;;22.09
63158;BMP280;49381;49.338;8.794;2022-07-23T06:23:28;100305.50;;;22.21
63158;BMP280;49381;49.338;8.794;2022-07-23T06:25:28;100293.91;;;22.31
63158;BMP280;49381;49.338;8.794;2022-07-23T06:27:28;100302.94;;;22.41
63158;BMP280;49381;49.338;8.794;2022-07-23T06:29:30;100312.25;;;22.45
63158;BMP280;49381;49.338;8.794;2022-07-23T06:31:30;100316.66;;;22.43
63158;BMP280;49381;49.338;8.794;2022-07-23T06:33:31;100326.06;;;22.44
63158;BMP280;49381;49.338;8.794;2022-07-23T06:35:31;100339.56;;;22.50
63158;BMP280;49381;49.338;8.794;2022-07-23T06:37:31;100354.81;;;22.56
63158;BMP280;49381;49.338;8.794;2022-07-23T06:39:32;100354.75;;;22.58
63158;BMP280;49381;49.338;8.794;2022-07-23T06:41:32;100352.47;;;22.50
63158;BMP280;49381;49.338;8.794;2022-07-23T06:43:32;100355.44;;;22.42
63158;BMP280;49381;49.338;8.794;2022-07-23T06:45:34;100367.28;;;22.47
63158;BMP280;49381;49.338;8.794;2022-07-23T06:47:34;100352.91;;;22.40
63158;BMP280;49381;49.338;8.794;2022-07-23T06:49:35;100347.63;;;22.43
63158;BMP280;49381;49.338;8.794;2022-07-23T06:51:35;100352.72;;;22.44
63158;BMP280;49381;49.338;8.794;2022-07-23T06:53:35;100351.63;;;22.50
63158;BMP280;49381;49.338;8.794;2022-07-23T06:55:36;100352.53;;;22.49
63158;BMP280;49381;49.338;8.794;2022-07-23T06:57:36;100351.13;;;22.42
63158;BMP280;49381;49.338;8.794;2022-07-23T06:59:36;100361.81;;;22.33
63158;BMP280;49381;49.338;8.794;2022-07-23T07:01:38;100356.41;;;22.39
63158;BMP280;49381;49.338;8.794;2022-07-23T07:03:39;100359.63;;;22.44
63158;BMP280;49381;49.338;8.794;2022-07-23T07:05:39;100342.59;;;22.40
63158;BMP280;49381;49.338;8.794;2022-07-23T07:07:39;100358.56;;;22.49
63158;BMP280;49381;49.338;8.794;2022-07-23T07:09:40;100362.63;;;22.55
63158;BMP280;49381;49.338;8.794;2022-07-23T07:11:40;100365.66;;;22.44
63158;BMP280;49381;49.338;8.794;2022-07-23T07:13:40;100372.66;;;22.41
63158;BMP280;49381;49.338;8.794;2022-07-23T07:15:41;100378.75;;;22.40
63158;BMP280;49381;49.338;8.794;2022-07-23T07:17:43;100377.81;;;22.41
63158;BMP280;49381;49.338;8.794;2022-07-23T07:19:43;100377.34;;;22.53
63158;BMP280;49381;49.338;8.794;2022-07-23T07:21:43;100365.00;;;22.80
63158;BMP280;49381;49.338;8.794;2022-07-23T07:23:46;100366.66;;;23.01
63158;BMP280;49381;49.338;8.794;2022-07-23T07:25:46;100370.13;;;23.19
63158;BMP280;49381;49.338;8.794;2022-07-23T07:27:46;100374.13;;;23.46
63158;BMP280;49381;49.338;8.794;2022-07-23T07:29:47;100367.56;;;23.75
63158;BMP280;49381;49.338;8.794;2022-07-23T07:31:47;100366.81;;;23.92
63158;BMP280;49381;49.338;8.794;2022-07-23T07:33:49;100362.63;;;24.06
63158;BMP280;49381;49.338;8.794;2022-07-23T07:35:49;100368.56;;;23.91
63158;BMP280;49381;49.338;8.794;2022-07-23T07:37:50;100371.19;;;23.90
63158;BMP280;49381;49.338;8.794;2022-07-23T07:39:50;100378.59;;;23.61
63158;BMP280;49381;49.338;8.794;2022-07-23T07:41:50;100385.53;;;23.60
63158;BMP280;49381;49.338;8.794;2022-07-23T07:43:50;100382.66;;;23.84
63158;BMP280;49381;49.338;8.794;2022-07-23T07:45:51;100380.28;;;23.98
63158;BMP280;49381;49.338;8.794;2022-07-23T07:47:52;100384.22;;;24.06
63158;BMP280;49381;49.338;8.794;2022-07-23T07:49:53;100381.81;;;24.20
63158;BMP280;49381;49.338;8.794;2022-07-23T07:51:54;100381.25;;;24.32
63158;BMP280;49381;49.338;8.794;2022-07-23T07:53:54;100394.84;;;24.53
63158;BMP280;49381;49.338;8.794;2022-07-23T07:55:54;100398.53;;;24.66
63158;BMP280;49381;49.338;8.794;2022-07-23T07:57:55;100404.25;;;24.72
63158;BMP280;49381;49.338;8.794;2022-07-23T07:59:55;100392.19;;;24.71
63158;BMP280;49381;49.338;8.794;2022-07-23T08:01:55;100399.28;;;24.85
63158;BMP280;49381;49.338;8.794;2022-07-23T08:03:56;100393.88;;;24.89
63158;BMP280;49381;49.338;8.794;2022-07-23T08:05:57;100397.31;;;24.90
63158;BMP280;49381;49.338;8.794;2022-07-23T08:07:58;100392.81;;;24.93
63158;BMP280;49381;49.338;8.794;2022-07-23T08:09:59;100404.28;;;25.06
63158;BMP280;49381;49.338;8.794;2022-07-23T08:11:59;100391.28;;;25.22
63158;BMP280;49381;49.338;8.794;2022-07-23T08:13:59;100393.03;;;25.54
63158;BMP280;49381;49.338;8.794;2022-07-23T08:16:00;100395.44;;;25.73
63158;BMP280;49381;49.338;8.794;2022-07-23T08:18:00;100394.84;;;25.20
63158;BMP280;49381;49.338;8.794;2022-07-23T08:20:00;100399.00;;;25.07
63158;BMP280;49381;49.338;8.794;2022-07-23T08:22:02;100404.25;;;25.22
63158;BMP280;49381;49.338;8.794;2022-07-23T08:24:03;100412.34;;;24.83
63158;BMP280;49381;49.338;8.794;2022-07-23T08:26:03;100394.94;;;25.19
63158;BMP280;49381;49.338;8.794;2022-07-23T08:28:06;100401.41;;;25.44
63158;BMP280;49381;49.338;8.794;2022-07-23T08:30:08;100398.16;;;25.39
63158;BMP280;49381;49.338;8.794;2022-07-23T08:32:08;100408.09;;;25.48
63158;BMP280;49381;49.338;8.794;2022-07-23T08:34:08;100397.25;;;25.56
63158;BMP280;49381;49.338;8.794;2022-07-23T08:36:09;100397.75;;;25.63
63158;BMP280;49381;49.338;8.794;2022-07-23T08:38:11;100402.09;;;25.47
63158;BMP280;49381;49.338;8.794;2022-07-23T08:40:12;100404.91;;;25.43
63158;BMP280;49381;49.338;8.794;2022-07-23T08:42:13;100405.28;;;25.52
63158;BMP280;49381;49.338;8.794;2022-07-23T08:44:15;100405.03;;;25.56
63158;BMP280;49381;49.338;8.794;2022-07-23T08:46:19;100403.31;;;25.23
63158;BMP280;49381;49.338;8.794;2022-07-23T08:48:21;100404.34;;;25.53
63158;BMP280;49381;49.338;8.794;2022-07-23T08:50:22;100402.63;;;25.69
63158;BMP280;49381;49.338;8.794;2022-07-23T08:52:23;100407.19;;;25.80
63158;BMP280;49381;49.338;8.794;2022-07-23T08:54:25;100402.38;;;25.88
63158;BMP280;49381;49.338;8.794;2022-07-23T08:56:26;100407.84;;;25.99
63158;BMP280;49381;49.338;8.794;2022-07-23T08:58:26;100406.06;;;25.99
63158;BMP280;49381;49.338;8.794;2022-07-23T09:00:27;100401.75;;;26.00
63158;BMP280;49381;49.338;8.794;2022-07-23T09:02:27;100395.78;;;25.98
63158;BMP280;49381;49.338;8.794;2022-07-23T09:04:28;100397.91;;;25.60
63158;BMP280;49381;49.338;8.794;2022-07-23T09:06:28;100394.94;;;25.67
63158;BMP280;49381;49.338;8.794;2022-07-23T09:08:34;100396.47;;;25.86
63158;BMP280;49381;49.338;8.794;2022-07-23T09:10:48;100397.38;;;25.85
63158;BMP280;49381;49.338;8.794;2022-07-23T09:12:49;100400.47;;;25.92
63158;BMP280;49381;49.338;8.794;2022-07-23T09:14:49;100407.97;;;26.13
63158;BMP280;49381;49.338;8.794;2022-07-23T09:16:50;100408.06;;;26.11
63158;BMP280;49381;49.338;8.794;2022-07-23T09:18:52;100406.88;;;26.17
63158;BMP280;49381;49.338;8.794;2022-07-23T09:21:12;100399.22;;;26.29
63158;BMP280;49381;49.338;8.794;2022-07-23T09:23:12;100392.78;;;26.36
63158;BMP280;49381;49.338;8.794;2022-07-23T09:25:15;100401.44;;;26.21
63158;BMP280;49381;49.338;8.794;2022-07-23T09:27:17;100401.91;;;25.97
63158;BMP280;49381;49.338;8.794;2022-07-23T09:29:19;100410.41;;;25.69
63158;BMP280;49381;49.338;8.794;2022-07-23T09:31:20;100407.19;;;25.80
63158;BMP280;49381;49.338;8.794;2022-07-23T09:33:20;100409.19;;;25.91
63158;BMP280;49381;49.338;8.794;2022-07-23T09:35:21;100410.56;;;26.13
63158;BMP280;49381;49.338;8.794;2022-07-23T09:37:21;100411.88;;;26.20
63158;BMP280;49381;49.338;8.794;2022-07-23T09:39:25;100418.84;;;26.19
63158;BMP280;49381;49.338;8.794;2022-07-23T09:41:34;100415.41;;;26.19
63158;BMP280;49381;49.338;8.794;2022-07-23T09:43:36;100411.22;;;26.31
63158;BMP280;49381;49.338;8.794;2022-07-23T09:45:36;100410.44;;;26.29
63158;BMP280;49381;49.338;8.794;2022-07-23T09:47:36;100408.28;;;26.37
63158;BMP280;49381;49.338;8.794;2022-07-23T09:49:37;100410.53;;;26.43
63158;BMP280;49381;49.338;8.794;2022-07-23T09:51:43;100407.69;;;26.02
63158;BMP280;49381;49.338;8.794;2022-07-23T09:53:44;100409.81;;;26.11
63158;BMP280;49381;49.338;8.794;2022-07-23T09:55:44;100405.34;;;26.13
63158;BMP280;49381;49.338;8.794;2022-07-23T09:57:46;100400.81;;;25.86
63158;BMP280;49381;49.338;8.794;2022-07-23T09:59:48;100404.88;;;26.06
63158;BMP280;49381;49.338;8.794;2022-07-23T10:01:50;100396.63;;;26.29
63158;BMP280;49381;49.338;8.794;2022-07-23T10:03:51;100400.31;;;26.40
63158;BMP280;49381;49.338;8.794;2022-07-23T10:05:52;100393.59;;;26.51
63158;BMP280;49381;49.338;8.794;2022-07-23T10:07:54;100397.94;;;26.51
63158;BMP280;49381;49.338;8.794;2022-07-23T10:09:54;100398.31;;;26.45
63158;BMP280;49381;49.338;8.794;2022-07-23T10:11:56;100402.31;;;26.66
63158;BMP280;49381;49.338;8.794;2022-07-23T10:13:57;100401.78;;;26.75
63158;BMP280;49381;49.338;8.794;2022-07-23T10:15:59;100398.78;;;26.67
63158;BMP280;49381;49.338;8.794;2022-07-23T10:17:59;100396.91;;;26.53
63158;BMP280;49381;49.338;8.794;2022-07-23T10:20:00;100398.63;;;26.39
63158;BMP280;49381;49.338;8.794;2022-07-23T10:22:02;100392.53;;;26.40
63158;BMP280;49381;49.338;8.794;2022-07-23T10:24:12;100389.09;;;26.40
63158;BMP280;49381;49.338;8.794;2022-07-23T10:26:19;100382.63;;;26.47
63158;BMP280;49381;49.338;8.794;2022-07-23T10:31:02;100389.38;;;26.64
63158;BMP280;49381;49.338;8.794;2022-07-23T10:33:20;100388.06;;;26.42
63158;BMP280;49381;49.338;8.794;2022-07-23T10:35:29;100387.03;;;26.16
63158;BMP280;49381;49.338;8.794;2022-07-23T10:37:35;100390.78;;;26.25
63158;BMP280;49381;49.338;8.794;2022-07-23T10:39:38;100387.56;;;26.51
63158;BMP280;49381;49.338;8.794;2022-07-23T10:41:39;100389.31;;;26.66
63158;BMP280;49381;49.338;8.794;2022-07-23T10:43:40;100380.63;;;26.80
63158;BMP280;49381;49.338;8.794;2022-07-23T10:45:40;100381.94;;;26.87
63158;BMP280;49381;49.338;8.794;2022-07-23T10:47:42;100386.59;;;26.96
63158;BMP280;49381;49.338;8.794;2022-07-23T10:49:42;100383.53;;;27.03
63158;BMP280;49381;49.338;8.794;2022-07-23T10:52:16;100380.19;;;27.01
63158;BMP280;49381;49.338;8.794;2022-07-23T10:54:20;100382.69;;;27.03
63158;BMP280;49381;49.338;8.794;2022-07-23T10:57:04;100377.94;;;26.82
63158;BMP280;49381;49.338;8.794;2022-07-23T10:59:05;100376.09;;;26.98
63158;BMP280;49381;49.338;8.794;2022-07-23T11:01:32;100373.34;;;27.00
63158;BMP280;49381;49.338;8.794;2022-07-23T11:03:34;100367.50;;;27.11
63158;BMP280;49381;49.338;8.794;2022-07-23T11:05:43;100371.31;;;27.19
63158;BMP280;49381;49.338;8.794;2022-07-23T11:08:11;100377.16;;;27.23
63158;BMP280;49381;49.338;8.794;2022-07-23T11:10:31;100369.06;;;27.13
63158;BMP280;49381;49.338;8.794;2022-07-23T11:12:33;100370.44;;;27.19
63158;BMP280;49381;49.338;8.794;2022-07-23T11:14:57;100373.78;;;27.07
63158;BMP280;49381;49.338;8.794;2022-07-23T11:16:58;100367.88;;;27.05
63158;BMP280;49381;49.338;8.794;2022-07-23T11:19:07;100371.75;;;27.12
63158;BMP280;49381;49.338;8.794;2022-07-23T11:23:58;100373.78;;;26.93
63158;BMP280;49381;49.338;8.794;2022-07-23T11:25:59;100366.81;;;27.07
63158;BMP280;49381;49.338;8.794;2022-07-23T11:28:14;100372.50;;;27.00
63158;BMP280;49381;49.338;8.794;2022-07-23T11:30:39;100368.50;;;26.95
63158;BMP280;49381;49.338;8.794;2022-07-23T11:32:40;100373.53;;;27.11
63158;BMP280;49381;49.338;8.794;2022-07-23T11:34:43;100374.09;;;27.16
63158;BMP280;49381;49.338;8.794;2022-07-23T11:36:48;100368.22;;;27.13